sensor_id;sensor_type;location;lat;lon;timestamp;P1;durP1;ratioP1;P2;durP2;ratioP2
73474;SDS011;61711;52.266;10.542;2023-03-12T00:01:25;5.40;;;2.80;;
73474;SDS011;61711;52.266;10.542;2023-03-12T00:03:51;4.57;;;2.63;;
73474;SDS011;61711;52.266;10.542;2023-03-12T00:06:18;5.07;;;2.58;;
73474;SDS011;61711;52.266;10.542;2023-03-12T00:08:44;4.38;;;2.60;;
73474;SDS011;61711;52.266;10.542;2023-03-12T00:11:12;6.57;;;2.78;;
73474;SDS011;61711;52.266;10.542;2023-03-12T00:13:38;4.22;;;2.60;;
73474;SDS011;61711;52.266;10.542;2023-03-12T00:16:12;4.80;;;2.33;;
73474;SDS011;61711;52.266;10.542;2023-03-12T00:18:38;11.15;;;2.95;;
73474;SDS011;61711;52.266;10.542;2023-03-12T00:21:05;7.38;;;2.78;;
73474;SDS011;61711;52.266;10.542;2023-03-12T00:23:32;6.20;;;2.60;;
73474;SDS011;61711;52.266;10.542;2023-03-12T00:25:58;3.67;;;2.42;;
73474;SDS011;61711;52.266;10.542;2023-03-12T00:28:25;4.82;;;2.30;;
73474;SDS011;61711;52.266;10.542;2023-03-12T00:30:51;5.18;;;2.40;;
73474;SDS011;61711;52.266;10.542;2023-03-12T00:33:17;4.28;;;2.33;;
73474;SDS011;61711;52.266;10.542;2023-03-12T00:35:43;6.38;;;2.53;;
73474;SDS011;61711;52.266;10.542;2023-03-12T00:38:09;3.50;;;2.20;;
73474;SDS011;61711;52.266;10.542;2023-03-12T00:40:35;9.30;;;2.92;;
73474;SDS011;61711;52.266;10.542;2023-03-12T00:43:03;5.18;;;2.50;;
73474;SDS011;61711;52.266;10.542;2023-03-12T00:45:29;4.03;;;2.45;;
73474;SDS011;61711;52.266;10.542;2023-03-12T00:47:55;4.47;;;2.30;;
73474;SDS011;61711;52.266;10.542;2023-03-12T00:50:21;7.15;;;2.92;;
73474;SDS011;61711;52.266;10.542;2023-03-12T00:52:47;5.65;;;2.35;;
73474;SDS011;61711;52.266;10.542;2023-03-12T00:55:13;5.35;;;2.35;;
73474;SDS011;61711;52.266;10.542;2023-03-12T00:57:39;6.13;;;2.30;;
73474;SDS011;61711;52.266;10.542;2023-03-12T01:00:05;5.47;;;2.13;;
73474;SDS011;61711;52.266;10.542;2023-03-12T01:02:35;4.85;;;2.45;;
73474;SDS011;61711;52.266;10.542;2023-03-12T01:05:02;7.07;;;2.70;;
73474;SDS011;61711;52.266;10.542;2023-03-12T01:07:28;6.18;;;2.40;;
73474;SDS011;61711;52.266;10.542;2023-03-12T01:09:54;3.92;;;2.30;;
73474;SDS011;61711;52.266;10.542;2023-03-12T01:12:20;5.32;;;2.38;;
73474;SDS011;61711;52.266;10.542;2023-03-12T01:14:46;5.45;;;3.05;;
73474;SDS011;61711;52.266;10.542;2023-03-12T01:17:12;4.13;;;2.30;;
73474;SDS011;61711;52.266;10.542;2023-03-12T01:19:38;9.82;;;2.42;;
73474;SDS011;61711;52.266;10.542;2023-03-12T01:22:04;4.57;;;2.35;;
73474;SDS011;61711;52.266;10.542;2023-03-12T01:24:30;6.00;;;2.25;;
73474;SDS011;61711;52.266;10.542;2023-03-12T01:26:56;5.72;;;2.30;;
73474;SDS011;61711;52.266;10.542;2023-03-12T01:29:22;6.70;;;2.60;;
73474;SDS011;61711;52.266;10.542;2023-03-12T01:31:48;5.57;;;2.50;;
73474;SDS011;61711;52.266;10.542;2023-03-12T01:34:16;5.20;;;2.20;;
73474;SDS011;61711;52.266;10.542;2023-03-12T01:36:42;5.20;;;2.45;;
73474;SDS011;61711;52.266;10.542;2023-03-12T01:39:10;7.28;;;2.78;;
73474;SDS011;61711;52.266;10.542;2023-03-12T01:41:36;5.95;;;2.30;;
73474;SDS011;61711;52.266;10.542;2023-03-12T01:44:03;5.70;;;2.35;;
73474;SDS011;61711;52.266;10.542;2023-03-12T01:49:00;5.38;;;2.40;;
73474;SDS011;61711;52.266;10.542;2023-03-12T01:51:28;4.22;;;2.15;;
73474;SDS011;61711;52.266;10.542;2023-03-12T01:53:55;7.60;;;2.60;;
73474;SDS011;61711;52.266;10.542;2023-03-12T01:56:22;6.03;;;2.42;;
73474;SDS011;61711;52.266;10.542;2023-03-12T01:58:51;3.35;;;2.20;;
73474;SDS011;61711;52.266;10.542;2023-03-12T02:01:18;5.65;;;2.58;;
73474;SDS011;61711;52.266;10.542;2023-03-12T02:03:45;6.47;;;2.47;;
73474;SDS011;61711;52.266;10.542;2023-03-12T02:06:12;6.22;;;2.22;;
73474;SDS011;61711;52.266;10.542;2023-03-12T02:08:40;3.92;;;2.25;;
73474;SDS011;61711;52.266;10.542;2023-03-12T02:11:07;4.38;;;2.22;;
73474;SDS011;61711;52.266;10.542;2023-03-12T02:13:33;6.38;;;2.30;;
73474;SDS011;61711;52.266;10.542;2023-03-12T02:15:58;4.30;;;2.00;;
73474;SDS011;61711;52.266;10.542;2023-03-12T02:18:25;5.68;;;2.30;;
73474;SDS011;61711;52.266;10.542;2023-03-12T02:20:55;5.45;;;2.35;;
73474;SDS011;61711;52.266;10.542;2023-03-12T02:23:29;5.47;;;2.03;;
73474;SDS011;61711;52.266;10.542;2023-03-12T02:25:55;4.63;;;2.08;;
73474;SDS011;61711;52.266;10.542;2023-03-12T02:28:22;4.07;;;2.30;;
73474;SDS011;61711;52.266;10.542;2023-03-12T02:30:50;4.85;;;2.30;;
73474;SDS011;61711;52.266;10.542;2023-03-12T02:33:17;6.05;;;2.28;;
73474;SDS011;61711;52.266;10.542;2023-03-12T02:35:44;7.53;;;2.50;;
73474;SDS011;61711;52.266;10.542;2023-03-12T02:40:55;5.88;;;2.45;;
73474;SDS011;61711;52.266;10.542;2023-03-12T02:43:23;4.43;;;2.55;;
73474;SDS011;61711;52.266;10.542;2023-03-12T02:45:49;4.53;;;2.50;;
73474;SDS011;61711;52.266;10.542;2023-03-12T02:48:15;3.78;;;2.63;;
73474;SDS011;61711;52.266;10.542;2023-03-12T02:50:41;6.68;;;2.30;;
73474;SDS011;61711;52.266;10.542;2023-03-12T02:53:07;3.47;;;2.42;;
73474;SDS011;61711;52.266;10.542;2023-03-12T02:55:33;6.22;;;2.28;;
73474;SDS011;61711;52.266;10.542;2023-03-12T02:57:59;4.63;;;2.33;;
73474;SDS011;61711;52.266;10.542;2023-03-12T03:00:25;4.88;;;2.50;;
73474;SDS011;61711;52.266;10.542;2023-03-12T03:02:51;6.80;;;2.63;;
73474;SDS011;61711;52.266;10.542;2023-03-12T03:05:17;4.68;;;2.65;;
73474;SDS011;61711;52.266;10.542;2023-03-12T03:07:44;6.47;;;2.65;;
73474;SDS011;61711;52.266;10.542;2023-03-12T03:10:10;7.15;;;2.58;;
73474;SDS011;61711;52.266;10.542;2023-03-12T03:12:36;4.85;;;2.58;;
73474;SDS011;61711;52.266;10.542;2023-03-12T03:15:02;5.47;;;2.80;;
73474;SDS011;61711;52.266;10.542;2023-03-12T03:17:29;2.97;;;2.13;;
73474;SDS011;61711;52.266;10.542;2023-03-12T03:19:55;4.53;;;2.55;;
73474;SDS011;61711;52.266;10.542;2023-03-12T03:22:21;5.15;;;2.45;;
73474;SDS011;61711;52.266;10.542;2023-03-12T03:24:47;4.97;;;2.40;;
73474;SDS011;61711;52.266;10.542;2023-03-12T03:27:13;3.50;;;2.20;;
73474;SDS011;61711;52.266;10.542;2023-03-12T03:29:39;5.82;;;2.40;;
73474;SDS011;61711;52.266;10.542;2023-03-12T03:32:05;4.72;;;2.67;;
73474;SDS011;61711;52.266;10.542;2023-03-12T03:34:31;4.53;;;1.98;;
73474;SDS011;61711;52.266;10.542;2023-03-12T03:36:57;7.30;;;2.45;;
73474;SDS011;61711;52.266;10.542;2023-03-12T03:39:23;6.82;;;2.30;;
73474;SDS011;61711;52.266;10.542;2023-03-12T03:41:50;5.82;;;2.70;;
73474;SDS011;61711;52.266;10.542;2023-03-12T03:44:16;3.08;;;2.10;;
73474;SDS011;61711;52.266;10.542;2023-03-12T03:46:42;4.80;;;2.50;;
73474;SDS011;61711;52.266;10.542;2023-03-12T03:49:08;6.35;;;2.65;;
73474;SDS011;61711;52.266;10.542;2023-03-12T03:51:34;3.95;;;2.45;;
73474;SDS011;61711;52.266;10.542;2023-03-12T03:54:00;7.10;;;2.40;;
73474;SDS011;61711;52.266;10.542;2023-03-12T03:56:26;4.25;;;2.22;;
73474;SDS011;61711;52.266;10.542;2023-03-12T03:58:52;4.40;;;2.50;;
73474;SDS011;61711;52.266;10.542;2023-03-12T04:01:18;6.30;;;2.45;;
73474;SDS011;61711;52.266;10.542;2023-03-12T04:03:45;6.15;;;2.40;;
73474;SDS011;61711;52.266;10.542;2023-03-12T04:06:11;3.42;;;2.45;;
73474;SDS011;61711;52.266;10.542;2023-03-12T04:08:37;5.75;;;3.00;;
73474;SDS011;61711;52.266;10.542;2023-03-12T04:11:08;6.18;;;2.70;;
73474;SDS011;61711;52.266;10.542;2023-03-12T04:13:35;5.65;;;2.80;;
73474;SDS011;61711;52.266;10.542;2023-03-12T04:16:01;4.15;;;2.60;;
73474;SDS011;61711;52.266;10.542;2023-03-12T04:18:27;6.43;;;2.40;;
73474;SDS011;61711;52.266;10.542;2023-03-12T04:20:53;9.00;;;2.50;;
73474;SDS011;61711;52.266;10.542;2023-03-12T04:23:19;7.25;;;3.13;;
73474;SDS011;61711;52.266;10.542;2023-03-12T04:25:45;4.93;;;2.70;;
73474;SDS011;61711;52.266;10.542;2023-03-12T04:28:11;4.30;;;2.60;;
73474;SDS011;61711;52.266;10.542;2023-03-12T04:30:37;6.03;;;2.78;;
73474;SDS011;61711;52.266;10.542;2023-03-12T04:33:04;7.30;;;3.03;;
73474;SDS011;61711;52.266;10.542;2023-03-12T04:35:30;5.00;;;2.70;;
73474;SDS011;61711;52.266;10.542;2023-03-12T04:37:56;9.50;;;3.22;;
73474;SDS011;61711;52.266;10.542;2023-03-12T04:40:22;5.80;;;2.60;;
73474;SDS011;61711;52.266;10.542;2023-03-12T04:42:48;6.25;;;2.83;;
73474;SDS011;61711;52.266;10.542;2023-03-12T04:45:14;6.47;;;2.83;;
73474;SDS011;61711;52.266;10.542;2023-03-12T04:47:40;6.60;;;3.05;;
73474;SDS011;61711;52.266;10.542;2023-03-12T04:50:06;7.57;;;2.85;;
73474;SDS011;61711;52.266;10.542;2023-03-12T04:52:32;5.63;;;2.88;;
73474;SDS011;61711;52.266;10.542;2023-03-12T04:54:58;6.13;;;3.03;;
73474;SDS011;61711;52.266;10.542;2023-03-12T04:57:24;5.45;;;2.97;;
73474;SDS011;61711;52.266;10.542;2023-03-12T04:59:50;6.30;;;3.50;;
73474;SDS011;61711;52.266;10.542;2023-03-12T05:02:17;6.90;;;2.78;;
73474;SDS011;61711;52.266;10.542;2023-03-12T05:04:43;5.72;;;2.60;;
73474;SDS011;61711;52.266;10.542;2023-03-12T05:07:09;8.32;;;3.42;;
73474;SDS011;61711;52.266;10.542;2023-03-12T05:09:35;8.60;;;3.40;;
73474;SDS011;61711;52.266;10.542;2023-03-12T05:12:01;6.50;;;3.10;;
73474;SDS011;61711;52.266;10.542;2023-03-12T05:14:27;6.50;;;2.95;;
73474;SDS011;61711;52.266;10.542;2023-03-12T05:16:53;6.40;;;2.90;;
73474;SDS011;61711;52.266;10.542;2023-03-12T05:19:19;9.18;;;4.75;;
73474;SDS011;61711;52.266;10.542;2023-03-12T05:21:45;9.10;;;3.17;;
73474;SDS011;61711;52.266;10.542;2023-03-12T05:24:11;5.15;;;3.00;;
73474;SDS011;61711;52.266;10.542;2023-03-12T05:26:37;7.22;;;3.05;;
73474;SDS011;61711;52.266;10.542;2023-03-12T05:29:04;6.40;;;3.20;;
73474;SDS011;61711;52.266;10.542;2023-03-12T05:31:30;9.75;;;3.20;;
73474;SDS011;61711;52.266;10.542;2023-03-12T05:33:59;7.55;;;3.10;;
73474;SDS011;61711;52.266;10.542;2023-03-12T05:36:25;10.73;;;3.20;;
73474;SDS011;61711;52.266;10.542;2023-03-12T05:38:51;4.40;;;2.80;;
73474;SDS011;61711;52.266;10.542;2023-03-12T05:41:21;5.70;;;2.70;;
73474;SDS011;61711;52.266;10.542;2023-03-12T05:43:48;7.63;;;3.10;;
73474;SDS011;61711;52.266;10.542;2023-03-12T05:46:14;4.65;;;2.78;;
73474;SDS011;61711;52.266;10.542;2023-03-12T05:48:41;4.20;;;2.50;;
73474;SDS011;61711;52.266;10.542;2023-03-12T05:51:07;4.72;;;2.58;;
73474;SDS011;61711;52.266;10.542;2023-03-12T05:53:33;4.43;;;2.70;;
73474;SDS011;61711;52.266;10.542;2023-03-12T05:56:03;5.43;;;2.83;;
73474;SDS011;61711;52.266;10.542;2023-03-12T05:58:29;5.82;;;2.72;;
73474;SDS011;61711;52.266;10.542;2023-03-12T06:00:55;5.88;;;2.88;;
73474;SDS011;61711;52.266;10.542;2023-03-12T06:03:21;5.57;;;2.88;;
73474;SDS011;61711;52.266;10.542;2023-03-12T06:05:47;7.35;;;2.80;;
73474;SDS011;61711;52.266;10.542;2023-03-12T06:08:13;4.95;;;2.83;;
73474;SDS011;61711;52.266;10.542;2023-03-12T06:10:39;4.38;;;2.63;;
73474;SDS011;61711;52.266;10.542;2023-03-12T06:13:05;4.45;;;2.72;;
73474;SDS011;61711;52.266;10.542;2023-03-12T06:15:32;4.25;;;2.60;;
73474;SDS011;61711;52.266;10.542;2023-03-12T06:17:58;6.40;;;2.85;;
73474;SDS011;61711;52.266;10.542;2023-03-12T06:20:24;6.60;;;2.90;;
73474;SDS011;61711;52.266;10.542;2023-03-12T06:22:50;5.95;;;3.10;;
73474;SDS011;61711;52.266;10.542;2023-03-12T06:25:16;4.85;;;2.65;;
73474;SDS011;61711;52.266;10.542;2023-03-12T06:27:42;5.45;;;3.00;;
73474;SDS011;61711;52.266;10.542;2023-03-12T06:30:08;4.50;;;2.92;;
73474;SDS011;61711;52.266;10.542;2023-03-12T06:32:35;6.13;;;3.13;;
73474;SDS011;61711;52.266;10.542;2023-03-12T06:35:01;5.15;;;2.97;;
73474;SDS011;61711;52.266;10.542;2023-03-12T06:37:28;5.90;;;2.97;;
73474;SDS011;61711;52.266;10.542;2023-03-12T06:39:54;5.63;;;3.00;;
73474;SDS011;61711;52.266;10.542;2023-03-12T06:42:20;6.07;;;3.03;;
73474;SDS011;61711;52.266;10.542;2023-03-12T06:44:46;6.10;;;3.13;;
73474;SDS011;61711;52.266;10.542;2023-03-12T06:47:12;5.70;;;3.22;;
73474;SDS011;61711;52.266;10.542;2023-03-12T06:49:38;6.32;;;3.08;;
73474;SDS011;61711;52.266;10.542;2023-03-12T06:52:05;7.07;;;3.10;;
73474;SDS011;61711;52.266;10.542;2023-03-12T06:54:31;7.35;;;3.20;;
73474;SDS011;61711;52.266;10.542;2023-03-12T06:56:57;8.98;;;3.40;;
73474;SDS011;61711;52.266;10.542;2023-03-12T06:59:23;6.57;;;3.30;;
73474;SDS011;61711;52.266;10.542;2023-03-12T07:01:50;5.60;;;3.20;;
73474;SDS011;61711;52.266;10.542;2023-03-12T07:04:16;6.10;;;2.78;;
73474;SDS011;61711;52.266;10.542;2023-03-12T07:06:42;3.70;;;2.92;;
73474;SDS011;61711;52.266;10.542;2023-03-12T07:09:08;4.47;;;2.72;;
73474;SDS011;61711;52.266;10.542;2023-03-12T07:11:34;6.97;;;2.85;;
73474;SDS011;61711;52.266;10.542;2023-03-12T07:14:00;5.88;;;3.20;;
73474;SDS011;61711;52.266;10.542;2023-03-12T07:16:26;4.95;;;3.03;;
73474;SDS011;61711;52.266;10.542;2023-03-12T07:18:52;4.78;;;2.90;;
73474;SDS011;61711;52.266;10.542;2023-03-12T07:21:18;6.60;;;3.10;;
73474;SDS011;61711;52.266;10.542;2023-03-12T07:23:50;6.22;;;3.15;;
73474;SDS011;61711;52.266;10.542;2023-03-12T07:26:17;5.13;;;3.25;;
73474;SDS011;61711;52.266;10.542;2023-03-12T07:28:43;6.20;;;2.95;;
73474;SDS011;61711;52.266;10.542;2023-03-12T07:31:09;6.13;;;3.40;;
73474;SDS011;61711;52.266;10.542;2023-03-12T07:33:35;6.00;;;3.50;;
73474;SDS011;61711;52.266;10.542;2023-03-12T07:36:01;9.48;;;3.30;;
73474;SDS011;61711;52.266;10.542;2023-03-12T07:38:27;7.65;;;3.58;;
73474;SDS011;61711;52.266;10.542;2023-03-12T07:40:55;7.20;;;3.60;;
73474;SDS011;61711;52.266;10.542;2023-03-12T07:43:21;8.40;;;3.58;;
73474;SDS011;61711;52.266;10.542;2023-03-12T07:45:48;4.88;;;3.35;;
73474;SDS011;61711;52.266;10.542;2023-03-12T07:48:14;8.68;;;3.53;;
73474;SDS011;61711;52.266;10.542;2023-03-12T07:50:41;6.20;;;3.88;;
73474;SDS011;61711;52.266;10.542;2023-03-12T07:53:07;6.47;;;3.22;;
73474;SDS011;61711;52.266;10.542;2023-03-12T07:55:33;5.40;;;2.95;;
73474;SDS011;61711;52.266;10.542;2023-03-12T07:57:59;6.28;;;3.63;;
73474;SDS011;61711;52.266;10.542;2023-03-12T08:00:25;5.32;;;2.92;;
73474;SDS011;61711;52.266;10.542;2023-03-12T08:02:52;5.35;;;3.25;;
73474;SDS011;61711;52.266;10.542;2023-03-12T08:05:18;5.45;;;3.03;;
73474;SDS011;61711;52.266;10.542;2023-03-12T08:07:44;6.85;;;3.58;;
73474;SDS011;61711;52.266;10.542;2023-03-12T08:10:10;6.32;;;3.80;;
73474;SDS011;61711;52.266;10.542;2023-03-12T08:12:36;7.28;;;3.80;;
73474;SDS011;61711;52.266;10.542;2023-03-12T08:15:03;6.07;;;3.35;;
73474;SDS011;61711;52.266;10.542;2023-03-12T08:17:30;6.35;;;2.95;;
73474;SDS011;61711;52.266;10.542;2023-03-12T08:19:56;6.28;;;3.40;;
73474;SDS011;61711;52.266;10.542;2023-03-12T08:22:22;8.70;;;3.35;;
73474;SDS011;61711;52.266;10.542;2023-03-12T08:24:48;9.20;;;3.63;;
73474;SDS011;61711;52.266;10.542;2023-03-12T08:27:14;10.23;;;3.72;;
73474;SDS011;61711;52.266;10.542;2023-03-12T08:29:40;5.80;;;3.05;;
73474;SDS011;61711;52.266;10.542;2023-03-12T08:32:06;6.90;;;3.55;;
73474;SDS011;61711;52.266;10.542;2023-03-12T08:34:34;4.45;;;2.83;;
73474;SDS011;61711;52.266;10.542;2023-03-12T08:37:01;6.18;;;2.85;;
73474;SDS011;61711;52.266;10.542;2023-03-12T08:39:27;4.68;;;3.00;;
73474;SDS011;61711;52.266;10.542;2023-03-12T08:41:53;5.13;;;3.20;;
73474;SDS011;61711;52.266;10.542;2023-03-12T08:44:23;4.28;;;3.50;;
73474;SDS011;61711;52.266;10.542;2023-03-12T08:46:49;6.43;;;3.28;;
73474;SDS011;61711;52.266;10.542;2023-03-12T08:49:15;5.95;;;3.80;;
73474;SDS011;61711;52.266;10.542;2023-03-12T08:51:41;6.50;;;3.80;;
73474;SDS011;61711;52.266;10.542;2023-03-12T08:54:07;5.60;;;3.67;;
73474;SDS011;61711;52.266;10.542;2023-03-12T08:56:33;10.57;;;3.70;;
73474;SDS011;61711;52.266;10.542;2023-03-12T08:59:06;6.13;;;3.67;;
73474;SDS011;61711;52.266;10.542;2023-03-12T09:01:32;5.90;;;3.55;;
73474;SDS011;61711;52.266;10.542;2023-03-12T09:03:58;11.65;;;3.88;;
73474;SDS011;61711;52.266;10.542;2023-03-12T09:06:26;6.88;;;3.15;;
73474;SDS011;61711;52.266;10.542;2023-03-12T09:08:52;6.60;;;3.80;;
73474;SDS011;61711;52.266;10.542;2023-03-12T09:11:18;6.15;;;3.45;;
73474;SDS011;61711;52.266;10.542;2023-03-12T09:13:44;6.78;;;3.28;;
73474;SDS011;61711;52.266;10.542;2023-03-12T09:16:10;5.18;;;3.28;;
73474;SDS011;61711;52.266;10.542;2023-03-12T09:18:36;7.13;;;3.63;;
73474;SDS011;61711;52.266;10.542;2023-03-12T09:21:02;6.07;;;3.28;;
73474;SDS011;61711;52.266;10.542;2023-03-12T09:23:28;8.13;;;3.40;;
73474;SDS011;61711;52.266;10.542;2023-03-12T09:25:54;6.72;;;3.70;;
73474;SDS011;61711;52.266;10.542;2023-03-12T09:28:21;8.13;;;4.07;;
73474;SDS011;61711;52.266;10.542;2023-03-12T09:30:47;6.55;;;3.50;;
73474;SDS011;61711;52.266;10.542;2023-03-12T09:33:13;5.50;;;3.72;;
73474;SDS011;61711;52.266;10.542;2023-03-12T09:35:40;5.28;;;3.55;;
73474;SDS011;61711;52.266;10.542;2023-03-12T09:38:06;7.80;;;4.15;;
73474;SDS011;61711;52.266;10.542;2023-03-12T09:40:32;8.98;;;3.60;;
73474;SDS011;61711;52.266;10.542;2023-03-12T09:43:02;7.53;;;3.45;;
73474;SDS011;61711;52.266;10.542;2023-03-12T09:45:30;4.15;;;3.13;;
73474;SDS011;61711;52.266;10.542;2023-03-12T09:47:58;9.57;;;3.85;;
73474;SDS011;61711;52.266;10.542;2023-03-12T09:50:35;6.50;;;3.80;;
73474;SDS011;61711;52.266;10.542;2023-03-12T09:55:49;9.02;;;4.00;;
73474;SDS011;61711;52.266;10.542;2023-03-12T09:58:17;15.05;;;7.82;;
73474;SDS011;61711;52.266;10.542;2023-03-12T10:00:46;6.28;;;4.18;;
73474;SDS011;61711;52.266;10.542;2023-03-12T10:03:22;7.43;;;3.60;;
73474;SDS011;61711;52.266;10.542;2023-03-12T10:16:10;10.38;;;3.30;;
73474;SDS011;61711;52.266;10.542;2023-03-12T10:21:09;4.13;;;3.08;;
73474;SDS011;61711;52.266;10.542;2023-03-12T10:28:44;6.45;;;3.17;;
73474;SDS011;61711;52.266;10.542;2023-03-12T10:31:22;7.13;;;3.30;;
73474;SDS011;61711;52.266;10.542;2023-03-12T10:33:52;5.38;;;3.00;;
73474;SDS011;61711;52.266;10.542;2023-03-12T10:36:21;6.10;;;2.70;;
73474;SDS011;61711;52.266;10.542;2023-03-12T10:38:49;5.68;;;2.88;;
73474;SDS011;61711;52.266;10.542;2023-03-12T10:41:27;4.68;;;2.60;;
73474;SDS011;61711;52.266;10.542;2023-03-12T10:43:54;5.40;;;2.85;;
73474;SDS011;61711;52.266;10.542;2023-03-12T10:48:48;8.00;;;3.38;;
73474;SDS011;61711;52.266;10.542;2023-03-12T10:51:14;4.68;;;2.70;;
73474;SDS011;61711;52.266;10.542;2023-03-12T10:53:41;4.75;;;2.90;;
73474;SDS011;61711;52.266;10.542;2023-03-12T10:56:12;5.85;;;3.25;;
73474;SDS011;61711;52.266;10.542;2023-03-12T10:58:40;5.85;;;2.90;;
73474;SDS011;61711;52.266;10.542;2023-03-12T11:03:42;3.78;;;1.80;;
73474;SDS011;61711;52.266;10.542;2023-03-12T11:06:08;3.88;;;1.45;;
73474;SDS011;61711;52.266;10.542;2023-03-12T11:08:39;3.97;;;1.52;;
73474;SDS011;61711;52.266;10.542;2023-03-12T11:11:06;2.10;;;1.45;;
73474;SDS011;61711;52.266;10.542;2023-03-12T11:13:40;4.40;;;1.73;;
73474;SDS011;61711;52.266;10.542;2023-03-12T11:18:38;3.13;;;1.23;;
73474;SDS011;61711;52.266;10.542;2023-03-12T11:23:33;2.30;;;1.50;;
73474;SDS011;61711;52.266;10.542;2023-03-12T11:26:04;1.73;;;1.25;;
73474;SDS011;61711;52.266;10.542;2023-03-12T11:29:20;2.28;;;1.10;;
73474;SDS011;61711;52.266;10.542;2023-03-12T11:31:26;2.80;;;1.63;;
73474;SDS011;61711;52.266;10.542;2023-03-12T11:33:55;4.00;;;1.40;;
73474;SDS011;61711;52.266;10.542;2023-03-12T11:46:48;2.72;;;1.50;;
73474;SDS011;61711;52.266;10.542;2023-03-12T11:49:20;3.40;;;1.52;;
73474;SDS011;61711;52.266;10.542;2023-03-12T11:54:38;1.60;;;1.30;;
73474;SDS011;61711;52.266;10.542;2023-03-12T12:05:05;2.78;;;1.50;;
73474;SDS011;61711;52.266;10.542;2023-03-12T12:07:38;4.57;;;1.40;;
73474;SDS011;61711;52.266;10.542;2023-03-12T12:10:20;4.45;;;1.90;;
73474;SDS011;61711;52.266;10.542;2023-03-12T12:12:54;2.65;;;1.50;;
73474;SDS011;61711;52.266;10.542;2023-03-12T12:15:34;5.50;;;1.75;;
73474;SDS011;61711;52.266;10.542;2023-03-12T12:18:37;3.70;;;1.58;;
73474;SDS011;61711;52.266;10.542;2023-03-12T12:23:23;2.20;;;1.52;;
73474;SDS011;61711;52.266;10.542;2023-03-12T12:36:26;3.45;;;1.52;;
73474;SDS011;61711;52.266;10.542;2023-03-12T12:38:57;4.47;;;1.88;;
73474;SDS011;61711;52.266;10.542;2023-03-12T12:41:30;3.22;;;1.63;;
73474;SDS011;61711;52.266;10.542;2023-03-12T12:44:03;2.55;;;1.67;;
73474;SDS011;61711;52.266;10.542;2023-03-12T12:51:26;2.22;;;1.70;;
73474;SDS011;61711;52.266;10.542;2023-03-12T12:58:55;4.03;;;1.80;;
73474;SDS011;61711;52.266;10.542;2023-03-12T13:01:22;3.60;;;1.80;;
73474;SDS011;61711;52.266;10.542;2023-03-12T13:03:48;4.25;;;1.73;;
73474;SDS011;61711;52.266;10.542;2023-03-12T13:06:15;4.35;;;1.80;;
73474;SDS011;61711;52.266;10.542;2023-03-12T13:14:40;3.72;;;1.92;;
73474;SDS011;61711;52.266;10.542;2023-03-12T13:16:47;3.35;;;2.10;;
73474;SDS011;61711;52.266;10.542;2023-03-12T13:24:31;3.17;;;2.38;;
73474;SDS011;61711;52.266;10.542;2023-03-12T13:29:53;5.78;;;2.63;;
73474;SDS011;61711;52.266;10.542;2023-03-12T13:48:16;5.57;;;3.10;;
73474;SDS011;61711;52.266;10.542;2023-03-12T13:50:48;6.63;;;2.95;;
73474;SDS011;61711;52.266;10.542;2023-03-12T13:53:19;4.82;;;3.50;;
73474;SDS011;61711;52.266;10.542;2023-03-12T13:55:48;6.93;;;3.40;;
73474;SDS011;61711;52.266;10.542;2023-03-12T13:58:25;5.60;;;3.38;;
73474;SDS011;61711;52.266;10.542;2023-03-12T14:00:55;7.20;;;3.38;;
73474;SDS011;61711;52.266;10.542;2023-03-12T14:03:24;5.03;;;3.10;;
73474;SDS011;61711;52.266;10.542;2023-03-12T14:05:53;3.67;;;2.80;;
73474;SDS011;61711;52.266;10.542;2023-03-12T14:13:27;5.07;;;2.70;;
73474;SDS011;61711;52.266;10.542;2023-03-12T14:18:23;4.63;;;2.67;;
73474;SDS011;61711;52.266;10.542;2023-03-12T14:20:53;6.00;;;3.10;;
73474;SDS011;61711;52.266;10.542;2023-03-12T14:23:21;5.00;;;2.90;;
73474;SDS011;61711;52.266;10.542;2023-03-12T14:25:47;4.03;;;2.88;;
73474;SDS011;61711;52.266;10.542;2023-03-12T14:28:23;4.72;;;3.40;;
73474;SDS011;61711;52.266;10.542;2023-03-12T14:36:13;6.32;;;3.80;;
73474;SDS011;61711;52.266;10.542;2023-03-12T14:38:42;5.38;;;4.13;;
73474;SDS011;61711;52.266;10.542;2023-03-12T14:43:37;10.10;;;4.95;;
73474;SDS011;61711;52.266;10.542;2023-03-12T14:46:05;11.80;;;5.68;;
73474;SDS011;61711;52.266;10.542;2023-03-12T14:48:38;10.00;;;5.70;;
73474;SDS011;61711;52.266;10.542;2023-03-12T14:51:05;10.63;;;5.50;;
73474;SDS011;61711;52.266;10.542;2023-03-12T14:53:33;8.73;;;5.22;;
73474;SDS011;61711;52.266;10.542;2023-03-12T14:58:28;8.35;;;4.47;;
73474;SDS011;61711;52.266;10.542;2023-03-12T15:00:56;6.20;;;4.30;;
73474;SDS011;61711;52.266;10.542;2023-03-12T15:03:22;7.35;;;4.05;;
73474;SDS011;61711;52.266;10.542;2023-03-12T15:05:48;6.13;;;3.83;;
73474;SDS011;61711;52.266;10.542;2023-03-12T15:08:15;8.60;;;4.22;;
73474;SDS011;61711;52.266;10.542;2023-03-12T15:10:49;6.95;;;3.95;;
73474;SDS011;61711;52.266;10.542;2023-03-12T15:13:16;6.85;;;4.00;;
73474;SDS011;61711;52.266;10.542;2023-03-12T15:15:45;7.22;;;4.05;;
73474;SDS011;61711;52.266;10.542;2023-03-12T15:20:43;6.57;;;4.47;;
73474;SDS011;61711;52.266;10.542;2023-03-12T15:23:10;7.22;;;4.25;;
73474;SDS011;61711;52.266;10.542;2023-03-12T15:25:37;6.63;;;4.28;;
73474;SDS011;61711;52.266;10.542;2023-03-12T15:28:05;6.55;;;4.30;;
73474;SDS011;61711;52.266;10.542;2023-03-12T15:30:32;7.55;;;4.38;;
73474;SDS011;61711;52.266;10.542;2023-03-12T15:33:09;7.30;;;4.50;;
73474;SDS011;61711;52.266;10.542;2023-03-12T15:35:36;9.68;;;4.70;;
73474;SDS011;61711;52.266;10.542;2023-03-12T15:38:03;7.50;;;4.30;;
73474;SDS011;61711;52.266;10.542;2023-03-12T15:40:29;7.18;;;4.45;;
73474;SDS011;61711;52.266;10.542;2023-03-12T15:42:56;9.52;;;5.63;;
73474;SDS011;61711;52.266;10.542;2023-03-12T15:45:36;7.68;;;4.35;;
73474;SDS011;61711;52.266;10.542;2023-03-12T15:48:14;7.00;;;4.40;;
73474;SDS011;61711;52.266;10.542;2023-03-12T15:50:41;9.00;;;4.88;;
73474;SDS011;61711;52.266;10.542;2023-03-12T15:55:37;7.85;;;4.68;;
73474;SDS011;61711;52.266;10.542;2023-03-12T16:00:48;6.43;;;4.47;;
73474;SDS011;61711;52.266;10.542;2023-03-12T16:03:18;7.65;;;5.03;;
73474;SDS011;61711;52.266;10.542;2023-03-12T16:05:44;6.35;;;4.70;;
73474;SDS011;61711;52.266;10.542;2023-03-12T16:10:40;6.75;;;4.53;;
73474;SDS011;61711;52.266;10.542;2023-03-12T16:13:08;7.72;;;4.97;;
73474;SDS011;61711;52.266;10.542;2023-03-12T16:15:35;6.57;;;4.65;;
73474;SDS011;61711;52.266;10.542;2023-03-12T16:18:02;7.18;;;4.43;;
73474;SDS011;61711;52.266;10.542;2023-03-12T16:20:28;8.32;;;5.13;;
73474;SDS011;61711;52.266;10.542;2023-03-12T16:22:54;7.20;;;4.65;;
73474;SDS011;61711;52.266;10.542;2023-03-12T16:25:20;7.75;;;4.80;;
73474;SDS011;61711;52.266;10.542;2023-03-12T16:27:47;8.15;;;5.22;;
73474;SDS011;61711;52.266;10.542;2023-03-12T16:30:19;7.13;;;4.95;;
73474;SDS011;61711;52.266;10.542;2023-03-12T16:32:47;9.57;;;5.13;;
73474;SDS011;61711;52.266;10.542;2023-03-12T16:35:14;8.27;;;5.28;;
73474;SDS011;61711;52.266;10.542;2023-03-12T16:37:40;9.40;;;6.13;;
73474;SDS011;61711;52.266;10.542;2023-03-12T16:40:07;11.02;;;6.03;;
73474;SDS011;61711;52.266;10.542;2023-03-12T16:42:33;8.43;;;5.18;;
73474;SDS011;61711;52.266;10.542;2023-03-12T16:44:59;9.80;;;5.90;;
73474;SDS011;61711;52.266;10.542;2023-03-12T16:47:25;10.52;;;5.82;;
73474;SDS011;61711;52.266;10.542;2023-03-12T16:49:51;9.77;;;5.65;;
73474;SDS011;61711;52.266;10.542;2023-03-12T16:52:18;9.15;;;5.70;;